createdAt,value
2024-04-19T00:01:05.811Z,100.00
2024-04-19T00:03:36.193Z,100.00
2024-04-19T00:06:04.441Z,100.00
2024-04-19T00:08:38.237Z,100.00
2024-04-19T00:11:06.188Z,100.00
2024-04-19T00:13:36.578Z,100.00
2024-04-19T00:16:07.200Z,100.00
2024-04-19T00:18:37.474Z,100.00
2024-04-19T00:21:05.640Z,100.00
2024-04-19T00:23:35.955Z,100.00
2024-04-19T00:26:04.294Z,100.00
2024-04-19T00:28:40.755Z,100.00
2024-04-19T00:31:11.010Z,100.00
2024-04-19T00:33:41.421Z,100.00
2024-04-19T00:36:09.226Z,100.00
2024-04-19T00:38:39.488Z,100.00
2024-04-19T00:41:07.111Z,100.00
2024-04-19T00:43:37.254Z,100.00
2024-04-19T00:46:06.689Z,100.00
2024-04-19T00:48:41.562Z,100.00
2024-04-19T00:51:10.579Z,100.00
2024-04-19T00:53:41.557Z,100.00
2024-04-19T00:56:28.010Z,100.00
2024-04-19T00:58:58.409Z,100.00
2024-04-19T01:01:26.744Z,100.00
2024-04-19T01:04:00.167Z,100.00
2024-04-19T01:06:27.828Z,100.00
2024-04-19T01:08:58.436Z,100.00
2024-04-19T01:11:32.988Z,100.00
2024-04-19T01:14:04.350Z,100.00
2024-04-19T01:16:32.181Z,100.00
2024-04-19T01:19:05.124Z,100.00
2024-04-19T01:21:33.015Z,100.00
2024-04-19T01:24:15.792Z,100.00
2024-04-19T01:26:46.050Z,100.00
2024-04-19T01:29:16.158Z,100.00
2024-04-19T01:31:43.748Z,100.00
2024-04-19T01:34:13.913Z,100.00
2024-04-19T01:36:41.633Z,100.00
2024-04-19T01:39:11.952Z,100.00
2024-04-19T01:41:39.569Z,100.00
2024-04-19T01:44:12.490Z,100.00
2024-04-19T01:46:40.103Z,100.00
2024-04-19T01:49:10.516Z,100.00
2024-04-19T01:51:38.139Z,100.00
2024-04-19T01:54:08.447Z,100.00
2024-04-19T01:56:38.706Z,100.00
2024-04-19T01:59:09.012Z,100.00
2024-04-19T02:01:39.300Z,100.00
2024-04-19T02:04:06.938Z,100.00
2024-04-19T02:06:37.310Z,100.00
2024-04-19T02:09:05.086Z,100.00
2024-04-19T02:11:35.329Z,100.00
2024-04-19T02:14:02.866Z,100.00
2024-04-19T02:16:37.028Z,100.00
2024-04-19T02:19:04.947Z,100.00
2024-04-19T02:21:35.475Z,100.00
2024-04-19T02:24:04.823Z,100.00
2024-04-19T02:26:35.974Z,100.00
2024-04-19T02:29:21.824Z,100.00
2024-04-19T02:31:54.676Z,100.00
2024-04-19T02:34:25.002Z,100.00
2024-04-19T02:36:55.272Z,100.00
2024-04-19T02:39:25.506Z,100.00
2024-04-19T02:41:55.688Z,100.00
2024-04-19T02:44:45.861Z,100.00
2024-04-19T02:47:18.635Z,100.00
2024-04-19T02:49:48.846Z,100.00
2024-04-19T02:52:19.063Z,100.00
2024-04-19T02:54:49.201Z,100.00
2024-04-19T02:57:19.387Z,100.00
2024-04-19T02:59:49.974Z,100.00
2024-04-19T03:02:20.123Z,100.00
2024-04-19T03:04:50.566Z,100.00
2024-04-19T03:07:20.769Z,100.00
2024-04-19T03:09:51.263Z,100.00
2024-04-19T03:12:21.562Z,100.00
2024-04-19T03:14:51.932Z,100.00
2024-04-19T03:17:24.744Z,100.00
2024-04-19T03:19:52.596Z,100.00
2024-04-19T03:22:22.772Z,100.00
2024-04-19T03:24:50.409Z,100.00
2024-04-19T03:27:20.758Z,100.00
2024-04-19T03:29:59.225Z,100.00
2024-04-19T03:32:32.101Z,100.00
2024-04-19T03:35:03.344Z,100.00
2024-04-19T03:37:33.593Z,100.00
2024-04-19T03:40:04.381Z,100.00
2024-04-19T03:42:34.702Z,100.00
2024-04-19T03:45:20.789Z,100.00
2024-04-19T03:47:53.593Z,100.00
2024-04-19T03:50:23.862Z,100.00
2024-04-19T03:52:54.715Z,100.00
2024-04-19T03:55:25.005Z,100.00
2024-04-19T03:57:55.277Z,100.00
2024-04-19T04:00:27.100Z,100.00
2024-04-19T04:03:00.125Z,100.00
2024-04-19T04:05:30.295Z,100.00
2024-04-19T04:08:00.460Z,100.00
2024-04-19T04:10:30.701Z,100.00
2024-04-19T04:13:00.966Z,100.00
2024-04-19T04:15:31.226Z,100.00
2024-04-19T04:18:04.725Z,100.00
2024-04-19T04:20:35.048Z,100.00
2024-04-19T04:23:05.378Z,100.00
2024-04-19T04:25:38.184Z,100.00
2024-04-19T04:28:09.159Z,100.00
2024-04-19T04:30:41.437Z,100.00
2024-04-19T04:33:15.830Z,100.00
2024-04-19T04:35:47.976Z,100.00
2024-04-19T04:38:18.588Z,100.00
2024-04-19T04:40:48.960Z,100.00
2024-04-19T04:43:19.208Z,100.00
2024-04-19T04:45:49.705Z,100.00
2024-04-19T04:48:22.843Z,100.00
2024-04-19T04:50:53.146Z,100.00
2024-04-19T04:53:23.354Z,100.00
2024-04-19T04:55:54.375Z,100.00
2024-04-19T04:58:24.530Z,100.00
2024-04-19T05:00:54.857Z,100.00
2024-04-19T05:03:28.143Z,100.00
2024-04-19T05:05:58.489Z,100.00
2024-04-19T05:08:28.845Z,100.00
2024-04-19T05:10:59.211Z,100.00
2024-04-19T05:13:29.509Z,100.00
2024-04-19T05:16:00.113Z,100.00
2024-04-19T05:18:33.165Z,100.00
2024-04-19T05:21:03.564Z,100.00
2024-04-19T05:23:33.905Z,100.00
2024-04-19T05:26:06.831Z,100.00
2024-04-19T05:28:37.453Z,100.00
2024-04-19T05:31:08.158Z,100.00
2024-04-19T05:33:41.237Z,100.00
2024-04-19T05:36:11.945Z,100.00
2024-04-19T05:38:42.135Z,100.00
2024-04-19T05:41:12.408Z,100.00
2024-04-19T05:43:42.598Z,100.00
2024-04-19T05:46:12.947Z,100.00
2024-04-19T05:48:45.980Z,100.00
2024-04-19T05:51:16.315Z,100.00
2024-04-19T05:53:46.540Z,100.00
2024-04-19T05:56:16.810Z,100.00
2024-04-19T05:58:48.846Z,100.00
2024-04-19T06:01:19.039Z,100.00
2024-04-19T06:03:51.978Z,100.00
2024-04-19T06:06:24.479Z,100.00
2024-04-19T06:08:55.015Z,100.00
2024-04-19T06:11:26.401Z,100.00
2024-04-19T06:13:56.826Z,100.00
2024-04-19T06:16:27.053Z,100.00
2024-04-19T06:19:00.024Z,100.00
2024-04-19T06:21:31.275Z,100.00
2024-04-19T06:24:01.733Z,100.00
2024-04-19T06:26:32.045Z,100.00
2024-04-19T06:29:02.298Z,100.00
2024-04-19T06:31:32.799Z,100.00
2024-04-19T06:34:05.808Z,100.00
2024-04-19T06:36:36.157Z,100.00
2024-04-19T06:39:06.662Z,100.00
2024-04-19T06:41:37.621Z,100.00
2024-04-19T06:44:08.071Z,100.00
2024-04-19T06:46:35.672Z,100.00
2024-04-19T06:49:08.579Z,100.00
2024-04-19T06:51:41.224Z,100.00
2024-04-19T06:54:13.275Z,100.00
2024-04-19T06:56:43.548Z,100.00
2024-04-19T06:59:13.861Z,100.00
2024-04-19T07:01:44.861Z,100.00
2024-04-19T07:04:17.859Z,100.00
2024-04-19T07:06:48.871Z,100.00
2024-04-19T07:09:19.361Z,100.00
2024-04-19T07:11:49.735Z,100.00
2024-04-19T07:14:20.066Z,100.00
2024-04-19T07:16:50.268Z,100.00
2024-04-19T07:19:23.223Z,100.00
2024-04-19T07:21:53.476Z,95.46
2024-04-19T07:24:23.740Z,92.03
2024-04-19T07:26:54.168Z,86.72
2024-04-19T07:29:24.377Z,91.31
2024-04-19T07:31:55.706Z,92.04
2024-04-19T07:34:28.601Z,84.06
2024-04-19T07:36:58.891Z,78.35
2024-04-19T07:39:29.223Z,70.30
2024-04-19T07:42:00.121Z,71.48
2024-04-19T07:44:30.461Z,71.74
2024-04-19T07:47:01.582Z,68.53
2024-04-19T07:49:34.759Z,67.73
2024-04-19T07:52:04.939Z,69.30
2024-04-19T07:54:35.129Z,71.15
2024-04-19T07:57:05.436Z,65.49
2024-04-19T07:59:35.629Z,65.16
2024-04-19T08:02:06.048Z,63.53
2024-04-19T08:04:39.193Z,65.02
2024-04-19T08:07:14.748Z,62.67
2024-04-19T08:09:50.728Z,60.54
2024-04-19T08:12:21.078Z,63.50
2024-04-19T08:14:51.568Z,71.07
2024-04-19T08:17:21.747Z,77.42
2024-04-19T08:19:54.553Z,78.60
2024-04-19T08:22:24.704Z,77.06
2024-04-19T08:24:55.874Z,79.56
2024-04-19T08:27:26.112Z,84.02
2024-04-19T08:29:56.304Z,80.10
2024-04-19T08:32:26.650Z,84.41
2024-04-19T08:35:00.175Z,85.35
2024-04-19T08:37:32.696Z,88.08
2024-04-19T08:40:03.286Z,84.15
2024-04-19T08:42:34.121Z,83.53
2024-04-19T08:45:07.178Z,78.10
2024-04-19T08:47:38.975Z,70.14
2024-04-19T08:50:15.283Z,68.28
2024-04-19T08:53:09.757Z,67.00
2024-04-19T08:55:44.269Z,64.22
2024-04-19T08:58:16.436Z,64.62
2024-04-19T09:00:46.989Z,63.67
2024-04-19T09:03:20.521Z,67.90
2024-04-19T09:05:53.625Z,70.61
2024-04-19T09:08:24.395Z,71.72
2024-04-19T09:10:55.292Z,77.46
2024-04-19T09:13:25.624Z,77.37
2024-04-19T09:15:57.777Z,77.29
2024-04-19T09:18:28.431Z,78.95
2024-04-19T09:21:01.501Z,79.96
2024-04-19T09:23:31.823Z,81.37
2024-04-19T09:26:02.166Z,82.97
2024-04-19T09:28:34.016Z,84.16
2024-04-19T09:31:04.894Z,85.73
2024-04-19T09:33:39.433Z,85.35
2024-04-19T09:36:21.234Z,85.56
2024-04-19T09:38:51.867Z,84.89
2024-04-19T09:41:23.340Z,88.94
2024-04-19T09:44:00.054Z,89.31
2024-04-19T09:46:36.505Z,88.71
2024-04-19T09:49:12.812Z,87.85
2024-04-19T09:51:50.883Z,91.58
2024-04-19T09:54:26.039Z,85.88
2024-04-19T09:57:00.815Z,85.99
2024-04-19T09:59:35.975Z,85.41
2024-04-19T10:02:14.143Z,81.41
2024-04-19T10:04:51.144Z,80.88
2024-04-19T10:07:24.809Z,77.66
2024-04-19T10:10:00.489Z,77.57
2024-04-19T10:12:31.888Z,78.33
2024-04-19T10:15:02.289Z,78.02
2024-04-19T10:17:33.091Z,79.09
2024-04-19T10:20:04.493Z,85.21
2024-04-19T10:22:39.269Z,87.46
2024-04-19T10:25:10.224Z,91.22
2024-04-19T10:27:43.145Z,96.17
2024-04-19T10:30:24.923Z,92.31
2024-04-19T10:33:02.630Z,89.47
2024-04-19T10:35:39.831Z,83.40
2024-04-19T10:38:16.390Z,73.51
2024-04-19T10:40:47.665Z,70.75
2024-04-19T10:43:18.585Z,70.72
2024-04-19T10:45:50.425Z,70.40
2024-04-19T10:48:22.392Z,68.76
2024-04-19T10:50:53.362Z,70.01
2024-04-19T10:53:26.188Z,73.95
2024-04-19T10:55:54.022Z,74.14
2024-04-19T10:58:24.566Z,76.56
2024-04-19T11:00:55.185Z,76.50
2024-04-19T11:03:30.854Z,79.24
2024-04-19T11:06:02.167Z,82.80
2024-04-19T11:08:37.434Z,86.28
2024-04-19T11:11:08.326Z,86.96
2024-04-19T11:13:41.130Z,91.32
2024-04-19T11:16:12.662Z,95.93
2024-04-19T11:18:44.784Z,100.00
2024-04-19T11:21:16.043Z,100.00
2024-04-19T11:23:50.960Z,100.00
2024-04-19T11:26:22.352Z,100.00
2024-04-19T11:28:50.221Z,100.00
2024-04-19T11:31:20.693Z,100.00
2024-04-19T11:33:57.619Z,100.00
2024-04-19T11:36:28.868Z,100.00
2024-04-19T11:39:02.080Z,100.00
2024-04-19T11:41:32.627Z,100.00
2024-04-19T11:44:06.158Z,100.00
2024-04-19T11:46:38.275Z,100.00
2024-04-19T11:49:16.739Z,100.00
2024-04-19T11:51:48.566Z,100.00
2024-04-19T11:54:21.411Z,100.00
2024-04-19T11:56:51.646Z,100.00
2024-04-19T11:59:19.694Z,100.00
2024-04-19T12:01:51.648Z,100.00
2024-04-19T12:04:23.215Z,100.00
2024-04-19T12:06:53.769Z,100.00
2024-04-19T12:09:26.739Z,100.00
2024-04-19T12:15:22.663Z,100.00
2024-04-19T12:17:29.481Z,100.00
2024-04-19T12:20:07.945Z,100.00
2024-04-19T12:22:53.461Z,100.00
2024-04-19T12:25:32.899Z,100.00
2024-04-19T12:28:03.475Z,100.00
2024-04-19T12:30:34.057Z,100.00
2024-04-19T12:33:04.873Z,100.00
2024-04-19T12:35:36.648Z,100.00
2024-04-19T12:38:07.292Z,100.00
2024-04-19T12:40:43.349Z,100.00
2024-04-19T12:43:16.031Z,100.00
2024-04-19T12:45:51.515Z,100.00
2024-04-19T12:48:22.717Z,100.00
2024-04-19T12:50:53.589Z,100.00
2024-04-19T12:53:23.863Z,100.00
2024-04-19T12:55:57.020Z,100.00
2024-04-19T12:58:27.337Z,100.00
2024-04-19T13:01:02.786Z,100.00
2024-04-19T13:03:33.495Z,100.00
2024-04-19T13:06:04.079Z,100.00
2024-04-19T13:08:34.615Z,100.00
2024-04-19T13:11:08.042Z,100.00
2024-04-19T13:13:54.467Z,100.00
2024-04-19T13:16:25.448Z,100.00
2024-04-19T13:18:56.105Z,100.00
2024-04-19T13:21:28.930Z,100.00
2024-04-19T13:23:59.525Z,100.00
2024-04-19T13:26:32.480Z,100.00
2024-04-19T13:29:02.754Z,100.00
2024-04-19T13:31:33.997Z,100.00
2024-04-19T13:34:04.324Z,100.00
2024-04-19T13:36:34.531Z,100.00
2024-04-19T13:39:04.806Z,100.00
2024-04-19T13:41:38.543Z,100.00
2024-04-19T13:44:10.829Z,100.00
2024-04-19T13:46:41.767Z,100.00
2024-04-19T13:49:15.859Z,100.00
2024-04-19T13:51:46.865Z,100.00
2024-04-19T13:54:17.140Z,100.00
2024-04-19T13:56:50.061Z,100.00
2024-04-19T13:59:22.242Z,100.00
2024-04-19T14:01:53.025Z,100.00
2024-04-19T14:04:23.324Z,100.00
2024-04-19T14:06:53.681Z,100.00
2024-04-19T14:09:23.918Z,100.00
2024-04-19T14:11:57.010Z,100.00
2024-04-19T14:14:27.905Z,100.00
2024-04-19T14:16:58.397Z,100.00
2024-04-19T14:19:26.079Z,100.00
2024-04-19T14:21:56.392Z,100.00
2024-04-19T14:24:26.935Z,100.00
2024-04-19T14:26:59.839Z,100.00
2024-04-19T14:29:30.062Z,100.00
2024-04-19T14:32:00.535Z,100.00
2024-04-19T14:34:31.065Z,100.00
2024-04-19T14:37:01.575Z,100.00
2024-04-19T14:39:31.987Z,100.00
2024-04-19T14:42:05.085Z,100.00
2024-04-19T14:44:35.306Z,100.00
2024-04-19T14:47:05.824Z,100.00
2024-04-19T14:49:36.158Z,100.00
2024-04-19T14:52:12.624Z,100.00
2024-04-19T14:54:45.963Z,100.00
2024-04-19T14:57:20.012Z,100.00
2024-04-19T14:59:50.270Z,100.00
2024-04-19T15:02:20.550Z,100.00
2024-04-19T15:04:50.745Z,100.00
2024-04-19T15:07:21.431Z,100.00
2024-04-19T15:09:52.117Z,100.00
2024-04-19T15:12:25.144Z,100.00
2024-04-19T15:14:57.875Z,100.00
2024-04-19T15:17:28.381Z,100.00
2024-04-19T15:19:58.675Z,100.00
2024-04-19T15:22:28.963Z,100.00
2024-04-19T15:25:00.703Z,100.00
2024-04-19T15:27:33.812Z,100.00
2024-04-19T15:30:04.374Z,100.00
2024-04-19T15:32:34.980Z,100.00
2024-04-19T15:35:10.345Z,100.00
2024-04-19T15:37:41.150Z,100.00
2024-04-19T15:40:13.986Z,100.00
2024-04-19T15:42:49.564Z,100.00
2024-04-19T15:45:20.033Z,100.00
2024-04-19T15:47:50.345Z,100.00
2024-04-19T15:50:20.955Z,100.00
2024-04-19T15:52:51.496Z,100.00
2024-04-19T15:55:21.895Z,100.00
2024-04-19T15:57:55.295Z,100.00
2024-04-19T16:00:25.670Z,100.00
2024-04-19T16:02:58.299Z,100.00
2024-04-19T16:05:28.641Z,100.00
2024-04-19T16:07:58.953Z,100.00
2024-04-19T16:10:29.341Z,100.00
2024-04-19T16:13:02.205Z,100.00
2024-04-19T16:15:35.701Z,100.00
2024-04-19T16:18:06.478Z,100.00
2024-04-19T16:20:36.852Z,100.00
2024-04-19T16:23:07.809Z,100.00
2024-04-19T16:25:38.053Z,100.00
2024-04-19T16:28:11.189Z,100.00
2024-04-19T16:30:41.574Z,100.00
2024-04-19T16:33:12.148Z,100.00
2024-04-19T16:35:51.382Z,100.00
2024-04-19T16:38:26.716Z,100.00
2024-04-19T16:40:58.555Z,100.00
2024-04-19T16:43:31.693Z,100.00
2024-04-19T16:46:02.838Z,100.00
2024-04-19T16:48:34.400Z,100.00
2024-04-19T16:51:04.988Z,100.00
2024-04-19T16:53:35.338Z,100.00
2024-04-19T16:56:08.599Z,100.00
2024-04-19T16:58:42.202Z,100.00
2024-04-19T17:01:12.675Z,100.00
2024-04-19T17:03:43.081Z,100.00
2024-04-19T17:06:15.210Z,100.00
2024-04-19T17:08:45.535Z,100.00
2024-04-19T17:11:16.256Z,100.00
2024-04-19T17:13:49.298Z,100.00
2024-04-19T17:16:19.517Z,100.00
2024-04-19T17:18:53.372Z,100.00
2024-04-19T17:21:23.687Z,100.00
2024-04-19T17:23:54.698Z,100.00
2024-04-19T17:26:25.127Z,100.00
2024-04-19T17:29:00.570Z,100.00
2024-04-19T17:31:32.715Z,100.00
2024-04-19T17:34:03.272Z,100.00
2024-04-19T17:36:38.290Z,100.00
2024-04-19T17:39:08.609Z,100.00
2024-04-19T17:41:39.376Z,100.00
2024-04-19T17:44:14.250Z,100.00
2024-04-19T17:46:45.224Z,100.00
2024-04-19T17:49:15.636Z,100.00
2024-04-19T17:51:46.478Z,100.00
2024-04-19T17:54:35.225Z,100.00
2024-04-19T17:57:10.829Z,100.00
2024-04-19T17:59:48.309Z,100.00
2024-04-19T18:02:19.337Z,100.00
2024-04-19T18:04:50.047Z,100.00
2024-04-19T18:07:21.245Z,100.00
2024-04-19T18:09:51.615Z,100.00
2024-04-19T18:12:22.349Z,100.00
2024-04-19T18:14:55.259Z,100.00
2024-04-19T18:17:25.603Z,100.00
2024-04-19T18:20:02.970Z,100.00
2024-04-19T18:22:33.268Z,100.00
2024-04-19T18:25:05.962Z,100.00
2024-04-19T18:27:36.396Z,100.00
2024-04-19T18:30:11.111Z,100.00
2024-04-19T18:32:41.396Z,100.00
2024-04-19T18:35:13.410Z,100.00
2024-04-19T18:37:43.864Z,100.00
2024-04-19T18:40:17.839Z,100.00
2024-04-19T18:42:48.062Z,100.00
2024-04-19T18:45:25.526Z,100.00
2024-04-19T18:47:58.800Z,100.00
2024-04-19T18:50:26.732Z,100.00
2024-04-19T18:52:56.949Z,100.00
2024-04-19T18:55:27.552Z,100.00
2024-04-19T18:58:01.025Z,100.00
2024-04-19T19:00:34.090Z,100.00
2024-04-19T19:03:43.016Z,100.00
2024-04-19T19:06:31.109Z,100.00
2024-04-19T19:11:55.188Z,100.00
2024-04-19T19:14:48.664Z,100.00
2024-04-19T19:17:21.582Z,100.00
2024-04-19T19:19:58.145Z,100.00
2024-04-19T19:22:28.349Z,100.00
2024-04-19T19:24:58.652Z,100.00
2024-04-19T19:27:30.147Z,100.00
2024-04-19T19:30:00.638Z,100.00
2024-04-19T19:32:33.736Z,100.00
2024-04-19T19:35:04.051Z,100.00
2024-04-19T19:37:34.829Z,100.00
2024-04-19T19:40:06.533Z,100.00
2024-04-19T19:42:36.871Z,100.00
2024-04-19T19:45:07.998Z,100.00
2024-04-19T19:47:40.916Z,100.00
2024-04-19T19:50:12.205Z,100.00
2024-04-19T19:52:42.578Z,100.00
2024-04-19T19:55:12.853Z,100.00
2024-04-19T19:57:43.324Z,100.00
2024-04-19T20:00:31.111Z,100.00
2024-04-19T20:03:22.638Z,100.00
2024-04-19T20:06:00.968Z,100.00
2024-04-19T20:08:31.420Z,100.00
2024-04-19T20:11:02.337Z,100.00
2024-04-19T20:13:32.740Z,100.00
2024-04-19T20:16:03.510Z,100.00
2024-04-19T20:18:39.359Z,100.00
2024-04-19T20:21:09.802Z,100.00
2024-04-19T20:23:42.453Z,100.00
2024-04-19T20:26:14.905Z,100.00
2024-04-19T20:28:47.336Z,100.00
2024-04-19T20:31:17.515Z,100.00
2024-04-19T20:33:50.500Z,100.00
2024-04-19T20:36:20.674Z,100.00
2024-04-19T20:38:50.962Z,100.00
2024-04-19T20:41:21.405Z,100.00
2024-04-19T20:43:51.888Z,100.00
2024-04-19T20:46:23.951Z,100.00
2024-04-19T20:48:57.110Z,100.00
2024-04-19T20:51:27.533Z,100.00
2024-04-19T20:53:57.856Z,100.00
2024-04-19T20:56:28.136Z,100.00
2024-04-19T20:58:59.443Z,100.00
2024-04-19T21:01:30.122Z,100.00
2024-04-19T21:04:03.165Z,100.00
2024-04-19T21:06:33.574Z,100.00
2024-04-19T21:09:05.417Z,100.00
2024-04-19T21:11:38.214Z,100.00
2024-04-19T21:14:08.382Z,100.00
2024-04-19T21:16:40.197Z,100.00
2024-04-19T21:19:13.265Z,100.00
2024-04-19T21:21:43.472Z,100.00
2024-04-19T21:24:13.683Z,100.00
2024-04-19T21:26:43.937Z,100.00
2024-04-19T21:29:14.204Z,100.00
2024-04-19T21:31:44.557Z,100.00
2024-04-19T21:34:17.860Z,100.00
2024-04-19T21:36:51.827Z,100.00
2024-04-19T21:39:22.441Z,100.00
2024-04-19T21:41:54.517Z,100.00
2024-04-19T21:44:24.727Z,100.00
2024-04-19T21:46:54.931Z,100.00
2024-04-19T21:49:27.873Z,100.00
2024-04-19T21:51:59.395Z,100.00
2024-04-19T21:54:29.581Z,100.00
2024-04-19T21:56:59.869Z,100.00
2024-04-19T21:59:30.020Z,100.00
2024-04-19T22:02:00.303Z,100.00
2024-04-19T22:04:33.310Z,100.00
2024-04-19T22:07:04.596Z,100.00
2024-04-19T22:09:35.066Z,100.00
2024-04-19T22:12:05.251Z,100.00
2024-04-19T22:14:35.569Z,100.00
2024-04-19T22:17:06.688Z,100.00
2024-04-19T22:19:39.679Z,100.00
2024-04-19T22:22:14.006Z,100.00
2024-04-19T22:24:44.303Z,100.00
2024-04-19T22:27:14.541Z,100.00
2024-04-19T22:29:44.808Z,100.00
2024-04-19T22:32:15.618Z,100.00
2024-04-19T22:34:51.909Z,100.00
2024-04-19T22:37:22.271Z,100.00
2024-04-19T22:39:54.451Z,100.00
2024-04-19T22:42:25.044Z,100.00
2024-04-19T22:44:55.321Z,100.00
2024-04-19T22:47:26.774Z,100.00
2024-04-19T22:49:59.932Z,100.00
2024-04-19T22:52:30.364Z,100.00
2024-04-19T22:55:00.891Z,100.00
2024-04-19T22:57:32.512Z,100.00
2024-04-19T23:00:02.908Z,100.00
2024-04-19T23:02:33.591Z,100.00
2024-04-19T23:05:06.748Z,100.00
2024-04-19T23:07:37.195Z,100.00
2024-04-19T23:10:08.295Z,100.00
2024-04-19T23:12:38.691Z,100.00
2024-04-19T23:15:11.545Z,100.00
2024-04-19T23:17:41.870Z,100.00
2024-04-19T23:20:14.828Z,100.00
2024-04-19T23:22:44.926Z,100.00
2024-04-19T23:25:17.891Z,100.00
2024-04-19T23:27:49.083Z,100.00
2024-04-19T23:30:19.604Z,100.00
2024-04-19T23:32:49.827Z,100.00
2024-04-19T23:35:23.088Z,100.00
2024-04-19T23:37:53.239Z,100.00
2024-04-19T23:40:23.582Z,100.00
2024-04-19T23:42:53.782Z,100.00
2024-04-19T23:45:23.989Z,100.00
2024-04-19T23:47:54.251Z,100.00
2024-04-19T23:50:28.271Z,100.00
2024-04-19T23:52:58.515Z,100.00
2024-04-19T23:55:28.808Z,100.00
2024-04-19T23:57:59.167Z,100.00
